Time;durP1;ratioP1;P1;durP2;ratioP2;P2;SDS_P1;SDS_P2;PMS_P1;PMS_P2;Temp;Humidity;BMP_temperature;BMP_pressure;BME280_temperature;BME280_humidity;BME280_pressure;Samples;Min_cycle;Max_cycle;Signal;HPM_P1;HPM_P2
2022/10/05 00:01:33;;;;;;;9.20;6.70;;;;;;;16.25;100.00;101630.75;2615463;36;20023;-54
2022/10/05 00:04:14;;;;;;;12.98;6.20;;;;;;;16.26;100.00;101627.03;2615236;36;20030;-56
2022/10/05 00:06:42;;;;;;;10.55;6.65;;;;;;;16.26;100.00;101624.31;2616336;36;20023;-53
2022/10/05 00:09:16;;;;;;;10.77;6.75;;;;;;;16.24;100.00;101629.06;2615810;36;20030;-54
2022/10/05 00:11:46;;;;;;;10.70;6.47;;;;;;;16.17;100.00;101636.09;2614784;36;20455;-57
2022/10/05 00:14:18;;;;;;;9.60;6.45;;;;;;;16.24;100.00;101623.63;2615410;36;20022;-57
2022/10/05 00:16:49;;;;;;;10.82;6.75;;;;;;;16.23;100.00;101630.06;2614566;36;20110;-53
2022/10/05 00:19:23;;;;;;;10.65;6.45;;;;;;;16.23;100.00;101627.34;2616003;36;20451;-53
2022/10/05 00:21:51;;;;;;;13.80;6.78;;;;;;;16.09;100.00;101626.00;2615572;36;20299;-56
2022/10/05 00:24:21;;;;;;;11.40;6.30;;;;;;;16.06;100.00;101615.44;2615558;36;20030;-53
2022/10/05 00:26:50;;;;;;;15.93;6.80;;;;;;;16.09;100.00;101609.69;2616132;36;20105;-50
2022/10/05 00:29:23;;;;;;;14.33;6.53;;;;;;;16.24;100.00;101601.88;2614863;36;20045;-53
2022/10/05 00:31:54;;;;;;;10.88;6.60;;;;;;;16.17;100.00;101606.22;2614356;36;20038;-57
2022/10/05 00:34:22;;;;;;;11.80;6.68;;;;;;;16.11;100.00;101611.25;2616027;36;20446;-53
2022/10/05 00:36:51;;;;;;;13.77;6.85;;;;;;;16.18;100.00;101616.06;2615669;31;20023;-54
2022/10/05 00:39:20;;;;;;;10.83;6.47;;;;;;;16.01;100.00;101613.19;2616062;36;20034;-50
2022/10/05 00:42:12;;;;;;;10.73;6.20;;;;;;;16.07;100.00;101600.88;2616426;36;20035;-55
2022/10/05 00:44:53;;;;;;;9.43;5.80;;;;;;;16.20;100.00;101585.03;2615532;36;20034;-53
2022/10/05 00:47:41;;;;;;;8.15;5.10;;;;;;;16.18;100.00;101588.91;2615923;36;20030;-55
2022/10/05 00:50:32;;;;;;;10.63;5.82;;;;;;;16.10;100.00;101590.53;2615296;31;20046;-55
2022/10/05 00:53:10;;;;;;;8.43;5.10;;;;;;;16.21;100.00;101575.00;2616164;36;20034;-54
2022/10/05 00:55:48;;;;;;;8.50;5.00;;;;;;;16.17;100.00;101581.78;2615712;36;20038;-53
2022/10/05 00:58:29;;;;;;;9.75;5.82;;;;;;;16.17;100.00;101585.34;2616029;31;20041;-52
2022/10/05 01:01:07;;;;;;;9.50;5.28;;;;;;;16.11;100.00;101581.38;2616231;36;20019;-54
2022/10/05 01:03:49;;;;;;;7.75;4.43;;;;;;;16.06;100.00;101578.28;2615951;36;20405;-53
2022/10/05 01:06:27;;;;;;;8.63;4.97;;;;;;;16.20;100.00;101576.03;2615444;36;20401;-53
2022/10/05 01:09:04;;;;;;;10.70;5.20;;;;;;;16.10;100.00;101570.69;2615684;36;20451;-55
2022/10/05 01:11:38;;;;;;;11.35;5.13;;;;;;;16.13;100.00;101570.38;2614838;36;20038;-52
2022/10/05 01:14:16;;;;;;;7.93;4.15;;;;;;;16.28;100.00;101563.38;2614752;36;20037;-52
2022/10/05 01:16:52;;;;;;;6.85;4.93;;;;;;;16.09;100.00;101561.69;2614489;36;20042;-53
2022/10/05 01:19:41;;;;;;;8.80;4.93;;;;;;;16.25;100.00;101557.41;2615862;36;20065;-54
2022/10/05 01:22:20;;;;;;;8.57;4.97;;;;;;;16.16;100.00;101539.34;2615924;36;20027;-52
2022/10/05 01:25:06;;;;;;;6.30;4.68;;;;;;;16.04;100.00;101531.41;2614495;36;20038;-55
2022/10/05 01:27:46;;;;;;;7.35;4.95;;;;;;;16.17;100.00;101514.72;2615779;36;20035;-51
2022/10/05 01:30:17;;;;;;;7.70;5.00;;;;;;;16.16;100.00;101518.44;2607248;36;20580;-51
2022/10/05 01:32:52;;;;;;;7.50;4.53;;;;;;;16.11;100.00;101521.63;2613241;36;20022;-55
2022/10/05 01:35:44;;;;;;;7.38;4.57;;;;;;;16.01;100.00;101517.31;2614245;36;20031;-53
2022/10/05 01:38:25;;;;;;;8.05;4.95;;;;;;;16.07;100.00;101520.25;2616090;36;20065;-49
2022/10/05 01:41:03;;;;;;;7.85;4.88;;;;;;;15.96;100.00;101512.34;2616597;36;20771;-53
2022/10/05 01:43:40;;;;;;;9.60;4.82;;;;;;;16.04;100.00;101514.28;2614743;36;20038;-49
2022/10/05 01:46:23;;;;;;;11.35;5.05;;;;;;;16.01;100.00;101503.72;2615147;36;20026;-53
2022/10/05 01:49:02;;;;;;;10.45;4.95;;;;;;;16.13;100.00;101517.94;2614853;36;20030;-53
2022/10/05 01:51:37;;;;;;;;;;;;;;;16.20;100.00;101519.00;2616030;36;20031;-54
2022/10/05 01:54:16;;;;;;;8.07;4.80;;;;;;;16.03;100.00;101508.00;2615349;36;19945;-55
2022/10/05 01:56:54;;;;;;;9.38;5.03;;;;;;;15.87;100.00;101496.97;2615851;36;20038;-55
2022/10/05 01:59:36;;;;;;;7.30;4.57;;;;;;;15.89;100.00;101494.97;2615436;36;20674;-55
2022/10/05 02:02:08;;;;;;;10.30;5.03;;;;;;;15.86;100.00;101495.28;2614752;36;20041;-53
2022/10/05 02:04:41;;;;;;;8.45;5.40;;;;;;;15.92;100.00;101481.09;2615518;36;20031;-53
2022/10/05 02:07:16;;;;;;;10.35;5.22;;;;;;;15.98;100.00;101487.75;2615806;36;20069;-53
2022/10/05 02:09:50;;;;;;;9.85;5.80;;;;;;;15.73;100.00;101477.47;2615620;36;20425;-54
2022/10/05 02:12:22;;;;;;;7.10;5.00;;;;;;;15.77;100.00;101480.75;2616388;36;20057;-52
2022/10/05 02:14:59;;;;;;;8.82;5.57;;;;;;;15.74;100.00;101471.06;2614212;31;20023;-54
2022/10/05 02:17:35;;;;;;;12.13;6.43;;;;;;;15.52;100.00;101471.53;2614396;36;20061;-53
2022/10/05 02:20:08;;;;;;;11.07;6.47;;;;;;;15.59;100.00;101470.75;2615006;36;20027;-54
2022/10/05 02:22:41;;;;;;;11.23;6.75;;;;;;;15.52;100.00;101444.38;2616005;36;20053;-50
2022/10/05 02:25:14;;;;;;;9.50;6.03;;;;;;;15.56;100.00;101462.91;2615275;36;20030;-54
2022/10/05 02:27:49;;;;;;;9.68;6.00;;;;;;;15.58;100.00;101460.88;2615687;36;20045;-53
2022/10/05 02:30:21;;;;;;;12.43;7.35;;;;;;;15.59;100.00;101456.31;2615131;36;20038;-52
2022/10/05 02:32:55;;;;;;;12.93;7.18;;;;;;;15.39;100.00;101439.34;2613778;36;20026;-55
2022/10/05 02:35:24;;;;;;;14.50;6.35;;;;;;;15.44;100.00;101449.72;2615286;36;20046;-55
2022/10/05 02:38:02;;;;;;;12.50;7.45;;;;;;;15.54;100.00;101464.06;2615890;36;20034;-56
2022/10/05 02:40:42;;;;;;;13.30;6.78;;;;;;;15.55;100.00;101463.91;2616158;31;20035;-55
2022/10/05 02:43:22;;;;;;;10.93;6.45;;;;;;;15.55;100.00;101460.34;2614699;36;20035;-54
2022/10/05 02:46:00;;;;;;;12.60;6.57;;;;;;;15.45;100.00;101470.44;2614805;36;20023;-54
2022/10/05 02:48:40;;;;;;;16.58;7.63;;;;;;;15.40;100.00;101463.59;2615108;36;20023;-52
2022/10/05 02:51:17;;;;;;;11.70;7.00;;;;;;;15.46;100.00;101454.00;2615489;36;20041;-51
2022/10/05 02:54:05;;;;;;;12.15;7.55;;;;;;;15.52;100.00;101455.25;2615397;31;20062;-53
2022/10/05 02:56:39;;;;;;;11.43;7.25;;;;;;;15.35;100.00;101465.06;2615985;36;20042;-53
2022/10/05 02:59:15;;;;;;;13.07;6.55;;;;;;;15.48;100.00;101475.53;2614159;36;20122;-54
2022/10/05 03:01:50;;;;;;;14.27;7.55;;;;;;;15.57;100.00;101463.75;2615432;36;20034;-50
2022/10/05 03:04:30;;;;;;;11.10;7.18;;;;;;;15.49;100.00;101466.38;2615399;31;20057;-53
2022/10/05 03:07:10;;;;;;;10.88;6.75;;;;;;;15.40;100.00;101460.88;2615775;31;20045;-53
2022/10/05 03:09:43;;;;;;;12.27;7.10;;;;;;;15.38;100.00;101475.59;2615023;36;20038;-53
2022/10/05 03:12:25;;;;;;;12.70;7.45;;;;;;;15.44;100.00;101474.13;2614991;36;20041;-55
2022/10/05 03:15:04;;;;;;;12.35;7.05;;;;;;;15.46;100.00;101466.69;2614584;36;20034;-54
2022/10/05 03:17:38;;;;;;;;;;;;;;;15.58;100.00;101470.91;2615222;36;20030;-53
2022/10/05 03:20:22;;;;;;;15.98;6.82;;;;;;;15.44;100.00;101479.56;2616303;36;19950;-54
2022/10/05 03:22:56;;;;;;;12.30;7.13;;;;;;;15.44;100.00;101474.13;2616441;36;20034;-56
2022/10/05 03:25:44;;;;;;;9.65;6.60;;;;;;;15.32;100.00;101477.06;2615798;36;20038;-54
2022/10/05 03:28:19;;;;;;;13.25;7.18;;;;;;;15.37;100.00;101466.63;2616661;31;20042;-55
2022/10/05 03:31:01;;;;;;;18.77;8.35;;;;;;;15.28;100.00;101463.94;2614908;36;20061;-51
2022/10/05 03:33:42;;;;;;;11.10;6.60;;;;;;;15.29;100.00;101460.25;2608896;36;20045;-56
2022/10/05 03:36:18;;;;;;;10.50;7.30;;;;;;;15.34;100.00;101463.34;2616684;31;20030;-52
2022/10/05 03:38:56;;;;;;;11.60;7.65;;;;;;;15.41;100.00;101453.59;2615694;36;20027;-54
2022/10/05 03:41:31;;;;;;;15.23;7.60;;;;;;;15.43;100.00;101459.72;2616556;36;20034;-54
2022/10/05 03:44:19;;;;;;;8.82;6.25;;;;;;;15.27;100.00;101467.66;2615469;31;20034;-50
2022/10/05 03:46:58;;;;;;;13.35;6.70;;;;;;;15.32;100.00;101462.66;2615746;36;20033;-51
2022/10/05 03:49:40;;;;;;;10.80;6.50;;;;;;;15.35;100.00;101455.03;2615903;36;20031;-55
2022/10/05 03:52:15;;;;;;;12.27;7.38;;;;;;;15.41;100.00;101451.75;2616280;31;20038;-51
2022/10/05 03:54:47;;;;;;;12.43;7.38;;;;;;;15.52;100.00;101449.81;2614481;36;20060;-52
2022/10/05 03:57:20;;;;;;;13.13;7.35;;;;;;;15.37;100.00;101453.06;2615984;36;20038;-53
2022/10/05 03:59:57;;;;;;;12.68;7.90;;;;;;;15.26;100.00;101445.13;2615422;36;20405;-49
2022/10/05 04:02:30;;;;;;;12.23;6.90;;;;;;;15.42;100.00;101445.28;2616702;31;20416;-51
2022/10/05 04:05:06;;;;;;;12.35;6.72;;;;;;;15.52;100.00;101447.09;2615765;36;20042;-55
2022/10/05 04:07:45;;;;;;;9.70;6.18;;;;;;;15.49;100.00;101444.66;2616181;36;20046;-50
2022/10/05 04:10:19;;;;;;;14.50;7.10;;;;;;;15.42;100.00;101439.03;2615644;36;21077;-53
2022/10/05 04:12:53;;;;;;;12.13;6.38;;;;;;;15.33;100.00;101437.25;2616210;36;20041;-50
2022/10/05 04:15:28;;;;;;;11.60;6.65;;;;;;;15.36;100.00;101424.22;2614770;31;20034;-55
2022/10/05 04:18:02;;;;;;;10.02;6.15;;;;;;;15.36;100.00;101440.50;2615561;36;20034;-53
2022/10/05 04:20:37;;;;;;;11.57;6.85;;;;;;;15.38;100.00;101433.03;2617044;31;20019;-53
2022/10/05 04:23:18;;;;;;;10.80;6.78;;;;;;;15.30;100.00;101427.53;2615894;36;20057;-53
2022/10/05 04:25:52;;;;;;;11.63;6.70;;;;;;;15.39;100.00;101429.31;2615056;36;20034;-52
2022/10/05 04:28:29;;;;;;;10.65;6.38;;;;;;;15.42;100.00;101423.59;2616092;36;20043;-57
2022/10/05 04:30:57;;;;;;;10.32;6.47;;;;;;;15.32;100.00;101413.81;2615571;36;20035;-53
2022/10/05 04:33:25;;;;;;;11.55;6.70;;;;;;;15.52;100.00;101417.25;2616262;31;20037;-52
2022/10/05 04:36:12;;;;;;;9.90;6.53;;;;;;;15.39;100.00;101414.94;2615242;36;20034;-53
2022/10/05 04:38:58;;;;;;;9.55;6.47;;;;;;;15.40;100.00;101409.34;2616275;31;20042;-50
2022/10/05 04:41:39;;;;;;;10.70;6.38;;;;;;;15.41;100.00;101416.47;2615195;36;20494;-50
2022/10/05 04:44:20;;;;;;;10.60;6.88;;;;;;;15.42;100.00;101415.44;2615121;36;20061;-51
2022/10/05 04:47:05;;;;;;;10.95;7.40;;;;;;;15.36;100.00;101413.38;2610432;36;20030;-54
2022/10/05 04:49:56;;;;;;;11.80;6.93;;;;;;;15.29;100.00;101412.28;2615828;36;20042;-53
2022/10/05 04:52:39;;;;;;;10.77;6.45;;;;;;;15.36;100.00;101407.94;2616582;31;20038;-49
2022/10/05 04:55:19;;;;;;;8.88;6.15;;;;;;;15.38;100.00;101410.50;2615776;36;20439;-53
2022/10/05 04:57:53;;;;;;;12.13;6.18;;;;;;;15.37;100.00;101403.34;2615531;36;20646;-51
2022/10/05 05:00:27;;;;;;;12.38;6.20;;;;;;;15.51;100.00;101404.69;2614610;36;20547;-51
2022/10/05 05:03:28;;;;;;;10.65;6.57;;;;;;;15.35;100.00;101400.81;2615634;36;20439;-50
2022/10/05 05:06:07;;;;;;;11.48;6.22;;;;;;;15.35;100.00;101400.81;2613790;36;20022;-57
2022/10/05 05:08:51;;;;;;;10.45;6.20;;;;;;;15.55;100.00;101392.53;2615461;31;20459;-50
2022/10/05 05:11:30;;;;;;;10.80;6.70;;;;;;;15.44;100.00;101398.19;2613567;36;20041;-54
2022/10/05 05:14:18;;;;;;;9.20;6.03;;;;;;;15.40;100.00;101384.09;2612701;36;20034;-52
2022/10/05 05:16:55;;;;;;;11.48;6.47;;;;;;;15.41;100.00;101381.22;2615350;31;20030;-51
2022/10/05 05:19:36;;;;;;;9.90;5.75;;;;;;;15.38;100.00;101377.94;2613538;31;20053;-53
2022/10/05 05:22:08;;;;;;;11.00;6.72;;;;;;;15.34;100.00;101382.84;2614254;36;20575;-53
2022/10/05 05:24:52;;;;;;;10.20;6.13;;;;;;;15.37;100.00;101382.53;2613140;31;20029;-50
2022/10/05 05:27:42;;;;;;;8.07;5.47;;;;;;;15.38;100.00;101378.78;2614408;36;20053;-56
2022/10/05 05:30:21;;;;;;;13.95;6.60;;;;;;;15.35;100.00;101379.09;2611060;36;20042;-54
2022/10/05 05:33:16;;;;;;;8.80;5.90;;;;;;;15.43;100.00;101381.06;2608252;36;20023;-54
2022/10/05 05:36:16;;;;;;;8.05;5.68;;;;;;;15.38;100.00;101378.78;2614718;31;20035;-53
2022/10/05 05:38:51;;;;;;;10.40;5.78;;;;;;;15.38;100.00;101378.78;2615958;31;20023;-50
2022/10/05 05:41:32;;;;;;;9.73;5.20;;;;;;;15.39;100.00;101371.53;2615859;36;20023;-53
2022/10/05 05:44:10;;;;;;;7.57;5.40;;;;;;;15.50;100.00;101365.88;2614872;36;20031;-55
2022/10/05 05:46:40;;;;;;;8.40;5.05;;;;;;;15.46;100.00;101363.59;2614220;36;20038;-51
2022/10/05 05:49:17;;;;;;;6.78;5.15;;;;;;;15.48;100.00;101361.59;2615515;36;20046;-57
2022/10/05 05:51:52;;;;;;;6.03;4.35;;;;;;;15.36;100.00;101361.84;2615703;36;20023;-55
2022/10/05 05:54:29;;;;;;;6.50;4.70;;;;;;;15.62;100.00;101358.34;2616197;36;20435;-53
2022/10/05 05:57:09;;;;;;;4.70;3.88;;;;;;;15.57;100.00;101361.50;2615815;36;20045;-54
2022/10/05 06:00:08;;;;;;;6.90;3.92;;;;;;;15.55;100.00;101357.25;2614983;31;20022;-51
2022/10/05 06:02:40;;;;;;;;;;;;;;;15.50;100.00;101362.28;2615619;36;20029;-51
2022/10/05 06:05:19;;;;;;;5.57;3.63;;;;;;;15.39;100.00;101364.22;2615716;36;19942;-53
2022/10/05 06:07:48;;;;;;;4.38;3.47;;;;;;;15.55;100.00;101360.81;2616247;36;20038;-55
2022/10/05 06:10:27;;;;;;;4.07;3.00;;;;;;;15.67;100.00;101366.00;2614168;36;20053;-51
2022/10/05 06:13:04;;;;;;;4.75;3.63;;;;;;;15.56;100.00;101372.50;2615452;36;20035;-50
2022/10/05 06:15:40;;;;;;;4.07;3.03;;;;;;;15.54;100.00;101382.69;2615431;36;20128;-51
2022/10/05 06:18:13;;;;;;;5.15;3.40;;;;;;;15.60;100.00;101368.47;2614699;36;20030;-51
2022/10/05 06:20:45;;;;;;;4.82;3.25;;;;;;;15.51;100.00;101383.00;2615506;36;20042;-51
2022/10/05 06:23:19;;;;;;;5.13;3.67;;;;;;;15.60;100.00;101376.63;2615926;31;20034;-52
2022/10/05 06:26:05;;;;;;;3.88;3.08;;;;;;;15.50;100.00;101384.00;2615363;36;20118;-53
2022/10/05 06:28:36;;;;;;;5.95;3.40;;;;;;;15.47;100.00;101382.44;2615696;36;20427;-55
2022/10/05 06:31:20;;;;;;;4.28;3.03;;;;;;;15.51;100.00;101391.13;2615430;36;20045;-53
2022/10/05 06:33:50;;;;;;;4.53;3.08;;;;;;;15.58;100.00;101392.22;2615425;36;20644;-52
2022/10/05 06:36:36;;;;;;;4.63;3.38;;;;;;;15.51;100.00;101383.00;2616365;36;20399;-55
2022/10/05 06:39:27;;;;;;;4.82;3.65;;;;;;;15.54;100.00;101382.69;2612003;36;20030;-54
2022/10/05 06:42:08;;;;;;;4.95;3.67;;;;;;;15.56;100.00;101386.94;2614033;36;20709;-54
2022/10/05 06:44:43;;;;;;;7.90;4.50;;;;;;;15.63;100.00;101381.72;2610757;36;20042;-55
2022/10/05 06:47:19;;;;;;;6.85;4.00;;;;;;;15.65;100.00;101387.88;2612626;36;20070;-52
2022/10/05 06:49:54;;;;;;;7.53;3.90;;;;;;;15.55;100.00;101384.38;2612581;31;20057;-55
2022/10/05 06:52:31;;;;;;;8.02;4.13;;;;;;;15.62;100.00;101385.47;2612876;36;20037;-50
2022/10/05 06:55:11;;;;;;;7.53;4.22;;;;;;;15.80;100.00;101382.75;2609327;36;20039;-53
2022/10/05 06:58:06;;;;;;;6.45;4.43;;;;;;;15.80;100.00;101387.31;2606811;36;20035;-51
2022/10/05 07:00:45;;;;;;;7.00;4.10;;;;;;;15.76;100.00;101393.03;2613612;36;20038;-54
2022/10/05 07:03:23;;;;;;;5.15;4.00;;;;;;;15.88;100.00;101387.41;2613770;36;20030;-54
2022/10/05 07:06:02;;;;;;;4.50;3.70;;;;;;;15.87;100.00;101388.41;2615020;36;20041;-54
2022/10/05 07:08:42;;;;;;;7.38;4.22;;;;;;;15.86;100.00;101392.16;2615050;36;20085;-52
2022/10/05 07:11:24;;;;;;;8.25;4.75;;;;;;;15.91;100.00;101390.63;2612685;36;20030;-55
2022/10/05 07:14:11;;;;;;;6.18;4.28;;;;;;;15.89;100.00;101392.66;2615415;36;20057;-53
2022/10/05 07:16:57;;;;;;;5.95;4.00;;;;;;;15.92;100.00;101388.78;2616841;36;20455;-51
2022/10/05 07:19:36;;;;;;;5.45;4.25;;;;;;;15.98;100.00;101390.03;2616431;36;20031;-53
2022/10/05 07:22:27;;;;;;;7.15;4.68;;;;;;;15.97;100.00;101383.72;2615928;36;20042;-52
2022/10/05 07:25:01;;;;;;;6.50;4.47;;;;;;;15.97;100.00;101386.44;2614874;36;20041;-56
2022/10/05 07:27:35;;;;;;;7.20;5.10;;;;;;;15.80;100.00;101382.75;2616230;36;20022;-54
2022/10/05 07:30:07;;;;;;;6.82;4.53;;;;;;;15.99;100.00;101383.56;2614513;36;20038;-52
2022/10/05 07:32:46;;;;;;;7.80;5.00;;;;;;;15.90;100.00;101374.50;2616363;36;20023;-56
2022/10/05 07:38:09;;;;;;;5.93;4.30;;;;;;;15.77;100.00;101378.47;2616447;36;20035;-51
2022/10/05 07:40:42;;;;;;;6.07;4.30;;;;;;;15.98;100.00;101379.16;2614051;36;20034;-54
2022/10/05 07:43:25;;;;;;;7.03;4.50;;;;;;;15.92;100.00;101376.06;2615172;36;20027;-53
2022/10/05 07:45:58;;;;;;;5.97;4.15;;;;;;;15.96;100.00;101381.16;2615613;36;20436;-50
2022/10/05 07:48:34;;;;;;;7.07;4.55;;;;;;;16.14;100.00;101379.25;2615841;36;20038;-54
2022/10/05 07:51:08;;;;;;;8.07;4.50;;;;;;;15.83;100.00;101374.31;2616109;36;20138;-54
2022/10/05 07:53:41;;;;;;;5.90;4.68;;;;;;;16.10;100.00;101375.16;2614817;36;20034;-53
2022/10/05 07:56:15;;;;;;;5.80;4.10;;;;;;;16.07;100.00;101367.34;2616247;36;20034;-52
2022/10/05 07:58:48;;;;;;;7.88;5.35;;;;;;;16.09;100.00;101374.31;2615159;36;20034;-55
2022/10/05 08:01:22;;;;;;;5.90;4.82;;;;;;;16.04;100.00;101368.50;2615613;36;20066;-53
2022/10/05 08:03:58;;;;;;;7.15;3.85;;;;;;;16.00;100.00;101364.41;2609278;36;20042;-51
2022/10/05 08:06:40;;;;;;;9.85;4.50;;;;;;;16.13;100.00;101360.41;2616393;36;20064;-51
2022/10/05 08:09:31;;;;;;;5.47;3.85;;;;;;;16.25;100.00;101359.13;2615678;36;20037;-53
2022/10/05 08:12:09;;;;;;;5.85;4.43;;;;;;;15.93;100.00;101360.63;2615443;36;20030;-50
2022/10/05 08:14:45;;;;;;;5.65;3.97;;;;;;;16.00;100.00;101366.28;2614654;36;20534;-55
2022/10/05 08:17:22;;;;;;;6.10;4.28;;;;;;;16.12;100.00;101356.84;2616601;36;20412;-55
2022/10/05 08:20:02;;;;;;;7.20;3.95;;;;;;;16.19;100.00;101360.63;2615818;36;20034;-55
2022/10/05 08:22:35;;;;;;;4.82;3.60;;;;;;;16.28;100.00;101350.66;2616284;36;20042;-53
2022/10/05 08:25:07;;;;;;;6.80;3.90;;;;;;;16.36;100.00;101350.69;2614314;36;20045;-53
2022/10/05 08:27:44;;;;;;;6.85;4.72;;;;;;;16.24;100.00;101347.41;2615871;36;20030;-53
2022/10/05 08:30:14;;;;;;;5.78;3.80;;;;;;;16.28;100.00;101347.94;2614921;36;20563;-52
2022/10/05 08:32:50;;;;;;;6.38;3.60;;;;;;;16.40;100.00;101343.94;2616014;36;20442;-52
2022/10/05 08:35:32;;;;;;;7.38;4.05;;;;;;;16.53;100.00;101350.78;2616196;36;20035;-54
2022/10/05 08:38:02;;;;;;;5.18;3.55;;;;;;;16.32;100.00;101338.44;2615797;36;20050;-50
2022/10/05 08:41:09;;;;;;;4.43;3.38;;;;;;;16.41;100.00;101339.34;2616033;36;20027;-54
2022/10/05 08:44:09;;;;;;;8.20;3.40;;;;;;;16.71;100.00;101343.38;2613831;36;20035;-54
2022/10/05 08:47:00;;;;;;;5.65;3.70;;;;;;;16.55;100.00;101348.72;2616314;36;20106;-53
2022/10/05 08:50:01;;;;;;;5.15;3.30;;;;;;;16.63;100.00;101343.34;2615164;36;20562;-53
2022/10/05 08:52:51;;;;;;;5.45;3.70;;;;;;;16.58;100.00;101334.84;2615025;31;20038;-52
2022/10/05 08:55:33;;;;;;;6.47;3.63;;;;;;;16.51;100.00;101326.47;2614270;36;20042;-55
2022/10/05 08:58:27;;;;;;;6.78;4.05;;;;;;;16.86;100.00;101324.56;2615260;36;20411;-56
2022/10/05 09:01:05;;;;;;;8.65;4.03;;;;;;;16.86;100.00;101329.13;2614801;36;20045;-54
2022/10/05 09:04:12;;;;;;;7.90;4.00;;;;;;;16.67;100.00;101330.28;2608988;36;20035;-55
2022/10/05 09:07:03;;;;;;;5.43;3.78;;;;;;;16.53;100.00;101327.16;2614375;36;20030;-55
2022/10/05 09:09:53;;;;;;;7.28;3.97;;;;;;;16.84;100.00;101321.13;2608847;36;20027;-57
2022/10/05 09:13:04;;;;;;;6.22;3.92;;;;;;;16.85;100.00;101316.56;2615137;36;20030;-55
2022/10/05 09:15:58;;;;;;;5.65;4.28;;;;;;;16.75;100.00;101305.84;2613968;36;20030;-59
2022/10/05 09:18:56;;;;;;;6.53;4.22;;;;;;;16.61;100.00;101304.63;2614993;36;20065;-52
2022/10/05 09:21:41;;;;;;;6.37;3.93;;;;;;;16.78;100.00;101302.78;2615140;36;20034;-50
2022/10/05 09:24:24;;;;;;;6.40;4.20;;;;;;;16.83;100.00;101308.59;2614956;36;20044;-58
2022/10/05 09:27:03;;;;;;;6.30;3.70;;;;;;;16.84;100.00;101293.13;2615655;36;20126;-56
2022/10/05 09:30:22;;;;;;;4.22;3.13;;;;;;;17.02;100.00;101303.88;2614352;36;20060;-54
2022/10/05 09:33:22;;;;;;;6.68;3.70;;;;;;;17.02;100.00;101299.31;2616133;36;20424;-56
2022/10/05 09:36:19;;;;;;;4.35;3.33;;;;;;;17.19;100.00;101311.03;2614431;36;20035;-51
2022/10/05 09:39:23;;;;;;;3.80;3.08;;;;;;;17.08;100.00;101303.22;2615170;36;20029;-53
2022/10/05 09:42:17;;;;;;;4.13;3.20;;;;;;;17.26;100.00;101309.34;2615854;36;20026;-56
2022/10/05 09:45:15;;;;;;;7.03;3.40;;;;;;;17.31;100.00;101292.50;2614028;36;20034;-55
2022/10/05 09:48:29;;;;;;;5.20;3.60;;;;;;;17.26;100.00;101301.19;2615546;36;20065;-52
2022/10/05 09:51:37;;;;;;;4.80;3.10;;;;;;;16.96;100.00;101291.78;2614878;36;20030;-54
2022/10/05 09:54:39;;;;;;;3.60;3.15;;;;;;;17.27;100.00;101277.53;2614711;36;20022;-54
2022/10/05 09:57:46;;;;;;;5.28;3.00;;;;;;;17.33;100.00;101274.16;2614778;36;20566;-56
2022/10/05 10:00:28;;;;;;;4.82;2.53;;;;;;;17.31;100.00;101270.75;2612665;36;20030;-53
2022/10/05 10:03:27;;;;;;;5.07;3.03;;;;;;;17.34;100.00;101275.84;2614770;36;20555;-54
2022/10/05 10:06:14;;;;;;;4.75;2.80;;;;;;;17.59;100.00;101270.38;2615395;36;20023;-51
2022/10/05 10:08:56;;;;;;;6.32;3.30;;;;;;;17.45;100.00;101264.63;2607670;36;20042;-54
2022/10/05 10:11:42;;;;;;;5.88;4.28;;;;;;;17.33;100.00;101266.84;2608597;36;20051;-51
2022/10/05 10:14:27;;;;;;;4.65;4.07;;;;;;;17.72;100.00;101256.25;2614103;36;20030;-52
2022/10/05 10:17:13;;;;;;;5.53;4.10;;;;;;;17.72;100.00;101248.94;2615839;36;20067;-51
2022/10/05 10:20:04;;;;;;;5.43;4.30;;;;;;;18.14;100.00;101261.44;2615682;36;20034;-52
2022/10/05 10:22:59;;;;;;;4.13;3.72;;;;;;;17.76;100.00;101255.72;2615593;31;20547;-54
2022/10/05 10:25:51;;;;;;;4.07;3.17;;;;;;;17.63;100.00;101263.59;2615640;36;20035;-54
2022/10/05 10:28:48;;;;;;;3.20;2.63;;;;;;;18.03;100.00;101262.69;2615220;36;20540;-54
2022/10/05 10:31:30;;;;;;;3.88;2.72;;;;;;;17.97;100.00;101257.06;2614406;36;20040;-55
2022/10/05 10:34:22;;;;;;;3.83;3.03;;;;;;;18.02;100.00;101260.97;2615876;31;20038;-56
2022/10/05 10:37:10;;;;;;;4.15;3.00;;;;;;;17.89;100.00;101257.03;2614556;31;20412;-54
2022/10/05 10:39:59;;;;;;;6.43;2.90;;;;;;;17.71;100.00;101251.81;2613748;36;20022;-54
2022/10/05 10:42:41;;;;;;;4.20;2.60;;;;;;;17.66;100.00;101261.34;2615524;36;20766;-54
2022/10/05 10:45:39;;;;;;;6.07;2.97;;;;;;;17.82;100.00;101252.31;2614594;36;20034;-55
2022/10/05 10:48:13;;;;;;;4.95;2.90;;;;;;;17.57;100.00;101256.13;2615553;36;20038;-54
2022/10/05 10:50:58;;;;;;;4.18;3.22;;;;;;;17.58;100.00;101253.22;2614916;36;20033;-52
2022/10/05 10:53:42;;;;;;;7.18;3.10;;;;;;;17.59;100.00;101260.34;2615821;36;20038;-57
2022/10/05 10:56:31;;;;;;;4.95;2.90;;;;;;;17.71;100.00;101262.72;2614698;36;20064;-53
2022/10/05 10:59:40;;;;;;;4.68;3.28;;;;;;;17.55;100.00;101253.56;2615085;36;20041;-54
2022/10/05 11:02:41;;;;;;;4.60;3.25;;;;;;;17.72;100.00;101253.53;2615741;36;20448;-57
2022/10/05 11:05:24;;;;;;;5.00;3.47;;;;;;;17.62;100.00;101259.16;2615030;31;20030;-54
2022/10/05 11:08:31;;;;;;;3.88;2.92;;;;;;;17.64;100.00;101257.13;2614259;36;20031;-56
2022/10/05 11:11:34;;;;;;;4.72;3.35;;;;;;;17.64;100.00;101257.13;2615090;36;20459;-54
2022/10/05 11:14:29;;;;;;;6.20;2.88;;;;;;;17.61;100.00;101260.19;2607145;36;20134;-53
2022/10/05 11:17:17;;;;;;;6.68;3.90;;;;;;;17.52;100.00;101253.91;2615856;36;20034;-54
2022/10/05 11:19:53;;;;;;;5.27;3.27;;;;;;;17.71;100.00;101249.97;2615425;36;20081;-56
2022/10/05 11:22:45;;;;;;;4.55;3.28;;;;;;;17.52;100.00;101253.91;2616032;36;20307;-54
2022/10/05 11:25:55;;;;;;;4.82;3.42;;;;;;;17.69;100.00;101249.28;2615097;36;20034;-50
2022/10/05 11:28:58;;;;;;;6.68;3.28;;;;;;;17.64;100.00;101248.97;2614350;36;20776;-55
2022/10/05 11:31:49;;;;;;;5.97;4.10;;;;;;;17.60;100.00;101236.72;2615038;36;20544;-54
2022/10/05 11:34:56;;;;;;;4.53;3.42;;;;;;;17.69;100.00;101238.38;2616032;36;20053;-52
2022/10/05 11:37:55;;;;;;;5.82;3.45;;;;;;;17.72;100.00;101237.19;2614755;36;21682;-53
2022/10/05 11:41:07;;;;;;;6.32;3.83;;;;;;;17.65;100.00;101232.47;2615602;36;20577;-56
2022/10/05 11:44:11;;;;;;;10.55;3.95;;;;;;;17.45;100.00;101237.41;2615828;36;20026;-55
2022/10/05 11:46:46;;;;;;;5.13;3.88;;;;;;;17.70;100.00;101231.94;2614816;31;20046;-57
2022/10/05 11:49:27;;;;;;;7.38;3.90;;;;;;;17.80;100.00;101229.00;2615983;36;20602;-54
2022/10/05 11:52:06;;;;;;;7.32;4.03;;;;;;;18.00;100.00;101224.03;2615467;36;20038;-56
2022/10/05 11:55:02;;;;;;;4.38;3.47;;;;;;;18.16;100.00;101215.78;2616365;36;20042;-57
2022/10/05 11:57:36;;;;;;;6.15;3.80;;;;;;;18.02;100.00;101214.66;2615132;36;20427;-56
2022/10/05 12:00:15;;;;;;;7.20;3.90;;;;;;;18.25;100.00;101215.75;2614764;36;20081;-54
2022/10/05 12:03:04;;;;;;;6.07;3.58;;;;;;;18.10;100.00;101200.16;2615133;31;20490;-51
2022/10/05 12:05:41;;;;;;;4.93;3.55;;;;;;;17.84;100.00;101214.88;2615929;36;20038;-55
2022/10/05 12:08:24;;;;;;;5.95;3.55;;;;;;;17.84;100.00;101214.00;2614763;36;20030;-58
2022/10/05 12:11:08;;;;;;;4.75;3.20;;;;;;;17.84;100.00;101209.44;2614680;36;20045;-58
2022/10/05 12:13:43;;;;;;;5.45;3.10;;;;;;;17.96;100.00;101206.34;2613437;36;20023;-55
2022/10/05 12:16:21;;;;;;;5.25;3.20;;;;;;;17.86;100.00;101207.38;2615387;31;20045;-57
2022/10/05 12:18:58;;;;;;;9.68;3.00;;;;;;;17.93;100.00;101195.81;2615444;36;20405;-58
2022/10/05 12:21:34;;;;;;;3.78;2.95;;;;;;;17.94;100.00;101194.78;2614827;36;20042;-53
2022/10/05 12:24:10;;;;;;;7.10;3.55;;;;;;;18.15;100.00;101188.72;2607677;36;20038;-53